Bizerte, Tunisia
Current Conditions -  °F | °C
As of 10:00 PM on Friday 24 Oct 2014 (Local Time) from DTTB Reporting Station
Scattered Clouds Scattered Clouds  
Wind Chill: 66°   Ceiling: Unl
Heat Index: 66°   Visibility: 6mi
Dew Point: 55°   Wind: 6mph
Humidity: 68%   Direction: 310°NW
Pressure: 30"   Gusts: NA
Location:  37.28°N, 9.87°E
Report Text: DTTB 242100Z 31005KT 9999 SCT020 19/13 Q1016
Loading
Personal Weather Stations






























Interactive Weather Map
Tropical Storm Tracking
New forecast layout! Learn more

10-Day Weather Forecast

Advertisements
Track Severe Weather on mobile